Airfield :
LOGIN :

Register | Disclaimer

   EN    FR    IT 

 










Legend :    VFR   Marginal VFR   IFR   Intensive IFR   Very Intensive IFR
Visi :
Ceiling :
>= 8 km
>= 3000ft
5 to 8 km
1000 to 3000 ft
1500m to 5 km
500 to 1000 ft
800 to 1500m
200 to 500 ft
< 800m
< 200 ft
Symbols :   Thunderstorms  Fog  Heavy snow  Heavy precipitations  Wind > 20 kt
SIGMETs :     Misc.  Thunderstorms  Icing  Turbulence  Mountain Waves  Volcanic Ashes






- Airport Elevation : 7 ft
- IATA code : POW


LJPZ - Portoroz

CURRENT METAR :
  • 251600Z 17003KT 110V220 9999 OVC050 13/08 Q1007

EXPIRED METARs :
  • 251530Z 18005KT 140V200 9999 BKN050 OVC070 13/08 Q1007
  • 251500Z 17005KT 130V210 9999 SCT050 OVC060 13/08 Q1007
  • 251430Z 18005KT 140V210 9999 SCT050 OVC060 13/08 Q1008
  • 251400Z 19006KT 130V230 9999 FEW040 OVC060 13/08 Q1008
  • 251330Z 18005KT 140V240 9999 SCT010 BKN065 13/08 Q1008

TAF TAF LJPZ
Valid from the 25 at 15:00 until the 26 at 00:00 UTC


251400Z 2515/2524 18005KT 9999 SCT010 BKN065
BECMG 2515/2518 18012KT



MET'MAP, your aeronautical weather chart ! - Copyright ORBIFLY December 2007 - Disclaimer

ORBIFLY MET'MAP TEAM :

Programming & Development : Alexandra Zaïnal
Concept & original design : Baudouin d'Aumeries
Assistance for programming : Marc-Olivier Méhu
Technical & hardware support : Manuel Goepfert

Contact : metmap@orbifly.com




SOURCES & CREDITS :

   NOAA